sensor_id;sensor_type;location;lat;lon;timestamp;pressure;altitude;pressure_sealevel;temperature;humidity
11487;BME280;10510;47.942;9.442;2023-03-21T00:01:21;94785.03;;;5.42;100.00
11487;BME280;10510;47.942;9.442;2023-03-21T00:03:22;94781.16;;;5.46;100.00
11487;BME280;10510;47.942;9.442;2023-03-21T00:05:22;94785.09;;;5.50;100.00
11487;BME280;10510;47.942;9.442;2023-03-21T00:07:23;94773.47;;;5.54;100.00
11487;BME280;10510;47.942;9.442;2023-03-21T00:09:23;94777.38;;;5.58;100.00
11487;BME280;10510;47.942;9.442;2023-03-21T00:11:23;94778.84;;;5.61;100.00
11487;BME280;10510;47.942;9.442;2023-03-21T00:13:24;94764.78;;;5.63;100.00
11487;BME280;10510;47.942;9.442;2023-03-21T00:15:25;94773.06;;;5.67;100.00
11487;BME280;10510;47.942;9.442;2023-03-21T00:17:26;94772.13;;;5.68;100.00
11487;BME280;10510;47.942;9.442;2023-03-21T00:19:31;94773.75;;;5.69;100.00
11487;BME280;10510;47.942;9.442;2023-03-21T00:21:32;94763.06;;;5.72;100.00
11487;BME280;10510;47.942;9.442;2023-03-21T00:23:33;94763.75;;;5.74;100.00
11487;BME280;10510;47.942;9.442;2023-03-21T00:25:33;94768.78;;;5.76;100.00
11487;BME280;10510;47.942;9.442;2023-03-21T00:27:34;94772.16;;;5.76;100.00
11487;BME280;10510;47.942;9.442;2023-03-21T00:29:35;94763.44;;;5.77;100.00
11487;BME280;10510;47.942;9.442;2023-03-21T00:31:35;94762.47;;;5.78;100.00
11487;BME280;10510;47.942;9.442;2023-03-21T00:33:36;94766.69;;;5.79;100.00
11487;BME280;10510;47.942;9.442;2023-03-21T00:35:39;94758.91;;;5.79;100.00
11487;BME280;10510;47.942;9.442;2023-03-21T00:37:42;94758.09;;;5.79;100.00
11487;BME280;10510;47.942;9.442;2023-03-21T00:39:42;94753.88;;;5.78;100.00
11487;BME280;10510;47.942;9.442;2023-03-21T00:41:46;94747.22;;;5.75;100.00
11487;BME280;10510;47.942;9.442;2023-03-21T00:43:47;94755.97;;;5.74;100.00
11487;BME280;10510;47.942;9.442;2023-03-21T00:45:48;94754.47;;;5.72;100.00
11487;BME280;10510;47.942;9.442;2023-03-21T00:47:49;94745.06;;;5.70;100.00
11487;BME280;10510;47.942;9.442;2023-03-21T00:49:49;94749.72;;;5.67;100.00
11487;BME280;10510;47.942;9.442;2023-03-21T00:51:50;94750.03;;;5.64;100.00
11487;BME280;10510;47.942;9.442;2023-03-21T00:53:55;94741.75;;;5.60;100.00
11487;BME280;10510;47.942;9.442;2023-03-21T00:55:56;94745.63;;;5.56;100.00
11487;BME280;10510;47.942;9.442;2023-03-21T00:57:56;94745.91;;;5.53;100.00
11487;BME280;10510;47.942;9.442;2023-03-21T00:59:56;94740.06;;;5.51;100.00
11487;BME280;10510;47.942;9.442;2023-03-21T01:01:59;94737.59;;;5.50;100.00
11487;BME280;10510;47.942;9.442;2023-03-21T01:04:00;94740.38;;;5.48;100.00
11487;BME280;10510;47.942;9.442;2023-03-21T01:06:06;94740.38;;;5.48;100.00
11487;BME280;10510;47.942;9.442;2023-03-21T01:08:07;94736.13;;;5.47;100.00
11487;BME280;10510;47.942;9.442;2023-03-21T01:10:09;94734.38;;;5.47;100.00
11487;BME280;10510;47.942;9.442;2023-03-21T01:12:10;94730.94;;;5.47;100.00
11487;BME280;10510;47.942;9.442;2023-03-21T01:14:12;94740.50;;;5.46;100.00
11487;BME280;10510;47.942;9.442;2023-03-21T01:16:12;94740.50;;;5.46;100.00
11487;BME280;10510;47.942;9.442;2023-03-21T01:18:15;94736.97;;;5.47;100.00
11487;BME280;10510;47.942;9.442;2023-03-21T01:20:15;94744.75;;;5.47;100.00
11487;BME280;10510;47.942;9.442;2023-03-21T01:22:16;94737.09;;;5.46;100.00
11487;BME280;10510;47.942;9.442;2023-03-21T01:24:16;94738.88;;;5.45;100.00
11487;BME280;10510;47.942;9.442;2023-03-21T01:26:16;94732.72;;;5.46;100.00
11487;BME280;10510;47.942;9.442;2023-03-21T01:28:17;94731.78;;;5.47;100.00
11487;BME280;10510;47.942;9.442;2023-03-21T01:30:17;94727.41;;;5.48;100.00
11487;BME280;10510;47.942;9.442;2023-03-21T01:32:18;94730.66;;;5.50;100.00
11487;BME280;10510;47.942;9.442;2023-03-21T01:34:18;94732.28;;;5.51;100.00
11487;BME280;10510;47.942;9.442;2023-03-21T01:36:21;94721.09;;;5.51;100.00
11487;BME280;10510;47.942;9.442;2023-03-21T01:38:21;94722.72;;;5.52;100.00
11487;BME280;10510;47.942;9.442;2023-03-21T01:40:24;94719.47;;;5.50;100.00
11487;BME280;10510;47.942;9.442;2023-03-21T01:42:25;94718.50;;;5.51;100.00
11487;BME280;10510;47.942;9.442;2023-03-21T01:44:25;94716.56;;;5.53;100.00
11487;BME280;10510;47.942;9.442;2023-03-21T01:46:45;94720.81;;;5.54;100.00
11487;BME280;10510;47.942;9.442;2023-03-21T01:51:09;94715.16;;;5.58;100.00
11487;BME280;10510;47.942;9.442;2023-03-21T01:53:11;94708.03;;;5.60;100.00
11487;BME280;10510;47.942;9.442;2023-03-21T01:55:13;94702.84;;;5.60;100.00
11487;BME280;10510;47.942;9.442;2023-03-21T01:57:21;94697.53;;;5.62;100.00
11487;BME280;10510;47.942;9.442;2023-03-21T01:59:38;94693.97;;;5.63;100.00
11487;BME280;10510;47.942;9.442;2023-03-21T02:01:40;94699.16;;;5.63;100.00
11487;BME280;10510;47.942;9.442;2023-03-21T02:03:44;94693.47;;;5.59;100.00
11487;BME280;10510;47.942;9.442;2023-03-21T02:05:55;94707.53;;;5.57;100.00
11487;BME280;10510;47.942;9.442;2023-03-21T02:07:59;94702.34;;;5.57;100.00
11487;BME280;10510;47.942;9.442;2023-03-21T02:10:02;94705.59;;;5.59;100.00
11487;BME280;10510;47.942;9.442;2023-03-21T02:12:03;94696.06;;;5.59;100.00
11487;BME280;10510;47.942;9.442;2023-03-21T02:14:12;94695.09;;;5.60;100.00
11487;BME280;10510;47.942;9.442;2023-03-21T02:16:37;94690.88;;;5.59;100.00
11487;BME280;10510;47.942;9.442;2023-03-21T02:24:37;94693.63;;;5.40;100.00
11487;BME280;10510;47.942;9.442;2023-03-21T02:31:13;94694.59;;;5.39;100.00
11487;BME280;10510;47.942;9.442;2023-03-21T02:42:29;94681.84;;;5.45;100.00
11487;BME280;10510;47.942;9.442;2023-03-21T02:45:02;94686.06;;;5.46;100.00
11487;BME280;10510;47.942;9.442;2023-03-21T02:47:05;94683.47;;;5.46;100.00
11487;BME280;10510;47.942;9.442;2023-03-21T02:51:21;94683.47;;;5.46;100.00
11487;BME280;10510;47.942;9.442;2023-03-21T02:53:25;94681.19;;;5.43;100.00
11487;BME280;10510;47.942;9.442;2023-03-21T02:55:30;94683.13;;;5.41;100.00
11487;BME280;10510;47.942;9.442;2023-03-21T02:57:32;94677.28;;;5.39;100.00
11487;BME280;10510;47.942;9.442;2023-03-21T02:59:34;94678.06;;;5.40;100.00
11487;BME280;10510;47.942;9.442;2023-03-21T03:01:36;94680.53;;;5.41;100.00
11487;BME280;10510;47.942;9.442;2023-03-21T03:03:36;94667.56;;;5.41;100.00
11487;BME280;10510;47.942;9.442;2023-03-21T03:05:57;94673.56;;;5.42;100.00
11487;BME280;10510;47.942;9.442;2023-03-21T03:08:09;94684.75;;;5.42;100.00
11487;BME280;10510;47.942;9.442;2023-03-21T03:13:03;94665.94;;;5.40;100.00
11487;BME280;10510;47.942;9.442;2023-03-21T03:15:18;94672.22;;;5.38;100.00
11487;BME280;10510;47.942;9.442;2023-03-21T03:17:42;94671.41;;;5.37;100.00
11487;BME280;10510;47.942;9.442;2023-03-21T03:22:08;94678.69;;;5.34;100.00
11487;BME280;10510;47.942;9.442;2023-03-21T03:24:26;94673.44;;;5.26;100.00
11487;BME280;10510;47.942;9.442;2023-03-21T03:26:33;94673.06;;;5.20;100.00
11487;BME280;10510;47.942;9.442;2023-03-21T03:28:38;94674.31;;;5.16;100.00
11487;BME280;10510;47.942;9.442;2023-03-21T03:30:40;94671.22;;;5.13;100.00
11487;BME280;10510;47.942;9.442;2023-03-21T03:32:46;94668.25;;;5.08;100.00
11487;BME280;10510;47.942;9.442;2023-03-21T03:34:50;94667.59;;;5.06;100.00
11487;BME280;10510;47.942;9.442;2023-03-21T03:36:56;94670.63;;;5.01;100.00
11487;BME280;10510;47.942;9.442;2023-03-21T03:38:59;94674.47;;;4.97;100.00
11487;BME280;10510;47.942;9.442;2023-03-21T03:41:07;94663.59;;;4.93;100.00
11487;BME280;10510;47.942;9.442;2023-03-21T03:43:14;94672.34;;;4.92;100.00
11487;BME280;10510;47.942;9.442;2023-03-21T03:45:16;94672.63;;;4.89;100.00
11487;BME280;10510;47.942;9.442;2023-03-21T03:47:29;94676.19;;;4.88;100.00
11487;BME280;10510;47.942;9.442;2023-03-21T03:49:47;94671.97;;;4.87;100.00
11487;BME280;10510;47.942;9.442;2023-03-21T03:52:00;94668.56;;;4.87;100.00
11487;BME280;10510;47.942;9.442;2023-03-21T03:54:06;94667.75;;;4.86;100.00
11487;BME280;10510;47.942;9.442;2023-03-21T03:56:09;94664.34;;;4.86;100.00
11487;BME280;10510;47.942;9.442;2023-03-21T03:58:11;94673.06;;;4.85;100.00
11487;BME280;10510;47.942;9.442;2023-03-21T04:00:13;94679.22;;;4.84;100.00
11487;BME280;10510;47.942;9.442;2023-03-21T04:02:14;94675.81;;;4.83;100.00
11487;BME280;10510;47.942;9.442;2023-03-21T04:04:16;94674.31;;;4.81;100.00
11487;BME280;10510;47.942;9.442;2023-03-21T04:06:17;94682.22;;;4.79;100.00
11487;BME280;10510;47.942;9.442;2023-03-21T04:08:18;94676.09;;;4.80;100.00
11487;BME280;10510;47.942;9.442;2023-03-21T04:10:19;94672.53;;;4.81;100.00
11487;BME280;10510;47.942;9.442;2023-03-21T04:12:20;94668.03;;;4.83;100.00
11487;BME280;10510;47.942;9.442;2023-03-21T04:14:20;94665.28;;;4.85;100.00
11487;BME280;10510;47.942;9.442;2023-03-21T04:16:20;94668.69;;;4.85;100.00
11487;BME280;10510;47.942;9.442;2023-03-21T04:18:22;94666.94;;;4.86;100.00
11487;BME280;10510;47.942;9.442;2023-03-21T04:20:23;94656.72;;;4.84;100.00
11487;BME280;10510;47.942;9.442;2023-03-21T04:22:23;94666.09;;;4.85;100.00
11487;BME280;10510;47.942;9.442;2023-03-21T04:24:23;94661.75;;;4.86;100.00
11487;BME280;10510;47.942;9.442;2023-03-21T04:26:24;94659.81;;;4.88;100.00
11487;BME280;10510;47.942;9.442;2023-03-21T04:28:24;94662.41;;;4.88;100.00
11487;BME280;10510;47.942;9.442;2023-03-21T04:30:24;94659.00;;;4.87;100.00
11487;BME280;10510;47.942;9.442;2023-03-21T04:32:25;94657.22;;;4.88;100.00
11487;BME280;10510;47.942;9.442;2023-03-21T04:34:26;94658.06;;;4.88;100.00
11487;BME280;10510;47.942;9.442;2023-03-21T04:36:27;94663.38;;;4.87;100.00
11487;BME280;10510;47.942;9.442;2023-03-21T04:38:37;94660.78;;;4.87;100.00
11487;BME280;10510;47.942;9.442;2023-03-21T04:40:38;94662.56;;;4.86;100.00
11487;BME280;10510;47.942;9.442;2023-03-21T04:42:38;94666.94;;;4.86;100.00
11487;BME280;10510;47.942;9.442;2023-03-21T04:44:39;94663.50;;;4.85;100.00
11487;BME280;10510;47.942;9.442;2023-03-21T04:46:40;94660.91;;;4.85;100.00
11487;BME280;10510;47.942;9.442;2023-03-21T04:48:40;94667.75;;;4.86;100.00
11487;BME280;10510;47.942;9.442;2023-03-21T04:50:41;94667.75;;;4.86;100.00
11487;BME280;10510;47.942;9.442;2023-03-21T04:52:41;94662.69;;;4.85;100.00
11487;BME280;10510;47.942;9.442;2023-03-21T04:54:41;94656.59;;;4.86;100.00
11487;BME280;10510;47.942;9.442;2023-03-21T04:56:42;94666.78;;;4.87;100.00
11487;BME280;10510;47.942;9.442;2023-03-21T04:58:44;94663.25;;;4.88;100.00
11487;BME280;10510;47.942;9.442;2023-03-21T05:00:45;94666.34;;;4.92;100.00
11487;BME280;10510;47.942;9.442;2023-03-21T05:02:45;94666.34;;;4.92;100.00
11487;BME280;10510;47.942;9.442;2023-03-21T05:04:46;94675.44;;;4.96;100.00
11487;BME280;10510;47.942;9.442;2023-03-21T05:06:46;94669.97;;;4.99;100.00
11487;BME280;10510;47.942;9.442;2023-03-21T05:08:46;94665.47;;;5.01;100.00
11487;BME280;10510;47.942;9.442;2023-03-21T05:10:46;94665.28;;;5.03;100.00
11487;BME280;10510;47.942;9.442;2023-03-21T05:12:47;94663.53;;;5.03;100.00
11487;BME280;10510;47.942;9.442;2023-03-21T05:14:47;94663.53;;;5.03;100.00
11487;BME280;10510;47.942;9.442;2023-03-21T05:16:48;94664.19;;;5.05;100.00
11487;BME280;10510;47.942;9.442;2023-03-21T05:18:52;94659.81;;;5.06;100.00
11487;BME280;10510;47.942;9.442;2023-03-21T05:20:53;94664.19;;;5.05;100.00
11487;BME280;10510;47.942;9.442;2023-03-21T05:22:54;94659.00;;;5.05;100.00
11487;BME280;10510;47.942;9.442;2023-03-21T05:24:54;94655.31;;;5.08;100.00
11487;BME280;10510;47.942;9.442;2023-03-21T05:26:55;94652.56;;;5.09;100.00
11487;BME280;10510;47.942;9.442;2023-03-21T05:29:01;94655.00;;;5.11;100.00
11487;BME280;10510;47.942;9.442;2023-03-21T05:31:05;94651.47;;;5.12;100.00
11487;BME280;10510;47.942;9.442;2023-03-21T05:33:06;94654.72;;;5.14;100.00
11487;BME280;10510;47.942;9.442;2023-03-21T05:35:06;94646.94;;;5.14;100.00
11487;BME280;10510;47.942;9.442;2023-03-21T05:37:07;94653.91;;;5.13;100.00
11487;BME280;10510;47.942;9.442;2023-03-21T05:39:07;94649.53;;;5.14;100.00
11487;BME280;10510;47.942;9.442;2023-03-21T05:41:07;94646.94;;;5.14;100.00
11487;BME280;10510;47.942;9.442;2023-03-21T05:43:07;94652.28;;;5.12;100.00
11487;BME280;10510;47.942;9.442;2023-03-21T05:45:08;94656.66;;;5.12;100.00
11487;BME280;10510;47.942;9.442;2023-03-21T05:47:08;94660.19;;;5.11;100.00
11487;BME280;10510;47.942;9.442;2023-03-21T05:49:10;94658.56;;;5.10;100.00
11487;BME280;10510;47.942;9.442;2023-03-21T05:51:14;94661.47;;;5.07;100.00
11487;BME280;10510;47.942;9.442;2023-03-21T05:53:14;94660.94;;;5.03;100.00
11487;BME280;10510;47.942;9.442;2023-03-21T05:55:15;94666.25;;;5.01;100.00
11487;BME280;10510;47.942;9.442;2023-03-21T05:57:15;94667.88;;;5.03;100.00
11487;BME280;10510;47.942;9.442;2023-03-21T05:59:18;94666.94;;;5.04;100.00
11487;BME280;10510;47.942;9.442;2023-03-21T06:01:18;94661.59;;;5.05;100.00
11487;BME280;10510;47.942;9.442;2023-03-21T06:03:18;94661.75;;;5.04;100.00
11487;BME280;10510;47.942;9.442;2023-03-21T06:05:19;94660.09;;;5.03;100.00
11487;BME280;10510;47.942;9.442;2023-03-21T06:07:19;94658.50;;;5.01;100.00
11487;BME280;10510;47.942;9.442;2023-03-21T06:09:21;94661.91;;;5.02;100.00
11487;BME280;10510;47.942;9.442;2023-03-21T06:11:23;94662.69;;;5.03;100.00
11487;BME280;10510;47.942;9.442;2023-03-21T06:13:25;94664.47;;;5.02;100.00
11487;BME280;10510;47.942;9.442;2023-03-21T06:15:25;94661.38;;;4.98;100.00
11487;BME280;10510;47.942;9.442;2023-03-21T06:17:25;94660.06;;;4.94;100.00
11487;BME280;10510;47.942;9.442;2023-03-21T06:19:26;94654.34;;;4.91;100.00
11487;BME280;10510;47.942;9.442;2023-03-21T06:21:26;94665.84;;;4.88;100.00
11487;BME280;10510;47.942;9.442;2023-03-21T06:23:26;94663.38;;;4.87;100.00
11487;BME280;10510;47.942;9.442;2023-03-21T06:25:27;94670.47;;;4.85;100.00
11487;BME280;10510;47.942;9.442;2023-03-21T06:27:27;94670.63;;;4.83;100.00
11487;BME280;10510;47.942;9.442;2023-03-21T06:29:27;94667.38;;;4.81;100.00
11487;BME280;10510;47.942;9.442;2023-03-21T06:31:27;94676.09;;;4.80;100.00
11487;BME280;10510;47.942;9.442;2023-03-21T06:33:28;94680.31;;;4.81;100.00
11487;BME280;10510;47.942;9.442;2023-03-21T06:35:28;94681.13;;;4.82;100.00
11487;BME280;10510;47.942;9.442;2023-03-21T06:37:28;94676.75;;;4.82;100.00
11487;BME280;10510;47.942;9.442;2023-03-21T06:39:29;94675.53;;;4.86;100.00
11487;BME280;10510;47.942;9.442;2023-03-21T06:41:30;94677.00;;;4.89;100.00
11487;BME280;10510;47.942;9.442;2023-03-21T06:43:30;94674.94;;;4.92;100.00
11487;BME280;10510;47.942;9.442;2023-03-21T06:45:31;94676.13;;;4.98;100.00
11487;BME280;10510;47.942;9.442;2023-03-21T06:47:31;94666.78;;;5.05;100.00
11487;BME280;10510;47.942;9.442;2023-03-21T06:49:32;94674.78;;;5.12;100.00
11487;BME280;10510;47.942;9.442;2023-03-21T06:51:32;94670.47;;;5.20;100.00
11487;BME280;10510;47.942;9.442;2023-03-21T06:53:32;94674.47;;;5.33;100.00
11487;BME280;10510;47.942;9.442;2023-03-21T06:55:32;94670.81;;;5.43;100.00
11487;BME280;10510;47.942;9.442;2023-03-21T06:57:33;94668.94;;;5.54;100.00
11487;BME280;10510;47.942;9.442;2023-03-21T06:59:33;94673.91;;;5.65;100.00
11487;BME280;10510;47.942;9.442;2023-03-21T07:01:34;94672.97;;;5.74;100.00
11487;BME280;10510;47.942;9.442;2023-03-21T07:03:34;94672.72;;;5.85;100.00
11487;BME280;10510;47.942;9.442;2023-03-21T07:05:36;94673.44;;;5.96;100.00
11487;BME280;10510;47.942;9.442;2023-03-21T07:07:38;94673.84;;;6.09;100.00
11487;BME280;10510;47.942;9.442;2023-03-21T07:09:39;94666.63;;;6.21;100.00
11487;BME280;10510;47.942;9.442;2023-03-21T07:11:40;94675.06;;;6.31;100.00
11487;BME280;10510;47.942;9.442;2023-03-21T07:13:40;94671.22;;;6.43;100.00
11487;BME280;10510;47.942;9.442;2023-03-21T07:15:41;94679.53;;;6.55;100.00
11487;BME280;10510;47.942;9.442;2023-03-21T07:17:41;94671.47;;;6.66;100.00
11487;BME280;10510;47.942;9.442;2023-03-21T07:19:42;94674.72;;;6.76;100.00
11487;BME280;10510;47.942;9.442;2023-03-21T07:21:42;94675.41;;;6.87;100.00
11487;BME280;10510;47.942;9.442;2023-03-21T07:23:42;94671.38;;;6.92;100.00
11487;BME280;10510;47.942;9.442;2023-03-21T07:25:43;94669.59;;;7.01;100.00
11487;BME280;10510;47.942;9.442;2023-03-21T07:27:43;94669.44;;;7.19;100.00
11487;BME280;10510;47.942;9.442;2023-03-21T07:29:43;94661.81;;;7.34;100.00
11487;BME280;10510;47.942;9.442;2023-03-21T07:31:46;94664.09;;;7.53;100.00
11487;BME280;10510;47.942;9.442;2023-03-21T07:33:46;94662.94;;;7.72;100.00
11487;BME280;10510;47.942;9.442;2023-03-21T07:35:46;94668.25;;;7.95;100.00
11487;BME280;10510;47.942;9.442;2023-03-21T07:37:46;94655.34;;;8.18;100.00
11487;BME280;10510;47.942;9.442;2023-03-21T07:39:47;94664.56;;;8.45;100.00
11487;BME280;10510;47.942;9.442;2023-03-21T07:41:47;94658.53;;;8.76;100.00
11487;BME280;10510;47.942;9.442;2023-03-21T07:43:47;94657.97;;;9.12;100.00
11487;BME280;10510;47.942;9.442;2023-03-21T07:45:47;94664.59;;;9.45;100.00
11487;BME280;10510;47.942;9.442;2023-03-21T07:47:48;94650.97;;;9.73;100.00
11487;BME280;10510;47.942;9.442;2023-03-21T07:49:48;94648.03;;;10.06;100.00
11487;BME280;10510;47.942;9.442;2023-03-21T07:51:48;94655.09;;;10.35;100.00
11487;BME280;10510;47.942;9.442;2023-03-21T07:53:49;94648.75;;;10.74;100.00
11487;BME280;10510;47.942;9.442;2023-03-21T07:55:50;94656.44;;;11.40;100.00
11487;BME280;10510;47.942;9.442;2023-03-21T07:57:52;94647.06;;;11.95;100.00
11487;BME280;10510;47.942;9.442;2023-03-21T07:59:52;94641.88;;;12.43;100.00
11487;BME280;10510;47.942;9.442;2023-03-21T08:01:52;94651.91;;;12.74;100.00
11487;BME280;10510;47.942;9.442;2023-03-21T08:03:53;94654.22;;;12.97;100.00
11487;BME280;10510;47.942;9.442;2023-03-21T08:05:53;94645.38;;;13.18;100.00
11487;BME280;10510;47.942;9.442;2023-03-21T08:07:53;94646.25;;;13.52;100.00
11487;BME280;10510;47.942;9.442;2023-03-21T08:09:54;94638.19;;;13.93;100.00
11487;BME280;10510;47.942;9.442;2023-03-21T08:11:54;94637.38;;;14.06;100.00
11487;BME280;10510;47.942;9.442;2023-03-21T08:13:54;94638.34;;;14.12;100.00
11487;BME280;10510;47.942;9.442;2023-03-21T08:15:55;94632.31;;;14.04;100.00
11487;BME280;10510;47.942;9.442;2023-03-21T08:17:58;94635.56;;;14.06;100.00
11487;BME280;10510;47.942;9.442;2023-03-21T08:19:58;94636.53;;;14.05;100.00
11487;BME280;10510;47.942;9.442;2023-03-21T08:21:59;94638.16;;;14.00;100.00
11487;BME280;10510;47.942;9.442;2023-03-21T08:24:00;94633.53;;;13.75;100.00
11487;BME280;10510;47.942;9.442;2023-03-21T08:26:00;94629.91;;;13.70;100.00
11487;BME280;10510;47.942;9.442;2023-03-21T08:28:01;94642.81;;;13.91;100.00
11487;BME280;10510;47.942;9.442;2023-03-21T08:30:01;94638.38;;;13.98;100.00
11487;BME280;10510;47.942;9.442;2023-03-21T08:32:01;94634.69;;;14.32;100.00
11487;BME280;10510;47.942;9.442;2023-03-21T08:34:02;94633.66;;;14.53;100.00
11487;BME280;10510;47.942;9.442;2023-03-21T08:36:04;94637.69;;;14.43;100.00
11487;BME280;10510;47.942;9.442;2023-03-21T08:38:06;94635.47;;;14.53;100.00
11487;BME280;10510;47.942;9.442;2023-03-21T08:40:09;94634.72;;;14.84;100.00
11487;BME280;10510;47.942;9.442;2023-03-21T08:42:10;94636.56;;;14.84;100.00
11487;BME280;10510;47.942;9.442;2023-03-21T08:44:10;94633.38;;;14.62;100.00
11487;BME280;10510;47.942;9.442;2023-03-21T08:46:11;94633.09;;;14.25;100.00
11487;BME280;10510;47.942;9.442;2023-03-21T08:48:11;94637.34;;;14.13;100.00
11487;BME280;10510;47.942;9.442;2023-03-21T08:50:14;94637.56;;;13.91;100.00
11487;BME280;10510;47.942;9.442;2023-03-21T08:52:15;94639.59;;;13.89;100.00
11487;BME280;10510;47.942;9.442;2023-03-21T08:54:19;94631.72;;;14.09;100.00
11487;BME280;10510;47.942;9.442;2023-03-21T08:56:20;94630.66;;;14.30;100.00
11487;BME280;10510;47.942;9.442;2023-03-21T08:58:21;94638.47;;;14.43;100.00
11487;BME280;10510;47.942;9.442;2023-03-21T09:00:21;94634.84;;;14.58;100.00
11487;BME280;10510;47.942;9.442;2023-03-21T09:02:22;94632.81;;;14.60;100.00
11487;BME280;10510;47.942;9.442;2023-03-21T09:04:22;94634.03;;;14.57;100.00
11487;BME280;10510;47.942;9.442;2023-03-21T09:06:24;94636.25;;;14.47;100.00
11487;BME280;10510;47.942;9.442;2023-03-21T09:08:26;94635.22;;;14.68;100.00
11487;BME280;10510;47.942;9.442;2023-03-21T09:10:26;94624.03;;;15.17;100.00
11487;BME280;10510;47.942;9.442;2023-03-21T09:12:27;94630.00;;;15.63;100.00
11487;BME280;10510;47.942;9.442;2023-03-21T09:14:27;94633.84;;;15.92;100.00
11487;BME280;10510;47.942;9.442;2023-03-21T09:16:27;94627.66;;;16.05;100.00
11487;BME280;10510;47.942;9.442;2023-03-21T09:18:28;94626.66;;;16.24;100.00
11487;BME280;10510;47.942;9.442;2023-03-21T09:20:44;94627.19;;;16.33;100.00
11487;BME280;10510;47.942;9.442;2023-03-21T09:22:46;94630.97;;;16.37;100.00
11487;BME280;10510;47.942;9.442;2023-03-21T09:24:47;94624.03;;;16.24;100.00
11487;BME280;10510;47.942;9.442;2023-03-21T09:26:48;94621.75;;;15.84;100.00
11487;BME280;10510;47.942;9.442;2023-03-21T09:28:50;94617.56;;;15.77;100.00
11487;BME280;10510;47.942;9.442;2023-03-21T09:30:52;94612.00;;;15.85;100.00
11487;BME280;10510;47.942;9.442;2023-03-21T09:32:54;94609.47;;;15.97;100.00
11487;BME280;10510;47.942;9.442;2023-03-21T09:34:54;94615.00;;;16.13;100.00
11487;BME280;10510;47.942;9.442;2023-03-21T09:36:56;94623.47;;;15.97;100.00
11487;BME280;10510;47.942;9.442;2023-03-21T09:38:56;94613.13;;;15.96;100.00
11487;BME280;10510;47.942;9.442;2023-03-21T09:41:08;94610.47;;;16.21;100.00
11487;BME280;10510;47.942;9.442;2023-03-21T09:43:27;94619.91;;;16.47;100.00
11487;BME280;10510;47.942;9.442;2023-03-21T09:48:00;94613.22;;;17.71;100.00
11487;BME280;10510;47.942;9.442;2023-03-21T09:50:06;94606.13;;;17.96;100.00
11487;BME280;10510;47.942;9.442;2023-03-21T09:52:26;94609.06;;;17.64;100.00
11487;BME280;10510;47.942;9.442;2023-03-21T09:54:31;94602.56;;;17.78;100.00
11487;BME280;10510;47.942;9.442;2023-03-21T09:56:35;94601.97;;;17.88;100.00
11487;BME280;10510;47.942;9.442;2023-03-21T09:58:40;94609.91;;;18.00;100.00
11487;BME280;10510;47.942;9.442;2023-03-21T10:00:44;94605.66;;;18.34;100.00
11487;BME280;10510;47.942;9.442;2023-03-21T10:02:51;94604.47;;;18.77;100.00
11487;BME280;10510;47.942;9.442;2023-03-21T10:04:52;94603.66;;;19.05;100.00
11487;BME280;10510;47.942;9.442;2023-03-21T10:06:56;94606.59;;;19.20;100.00
11487;BME280;10510;47.942;9.442;2023-03-21T10:09:04;94603.50;;;19.40;100.00
11487;BME280;10510;47.942;9.442;2023-03-21T10:11:13;94598.56;;;19.32;100.00
11487;BME280;10510;47.942;9.442;2023-03-21T10:13:19;94604.84;;;19.71;100.00
11487;BME280;10510;47.942;9.442;2023-03-21T10:15:24;94594.56;;;19.92;100.00
11487;BME280;10510;47.942;9.442;2023-03-21T10:17:44;94597.53;;;20.34;100.00
11487;BME280;10510;47.942;9.442;2023-03-21T10:19:49;94594.22;;;20.61;100.00
11487;BME280;10510;47.942;9.442;2023-03-21T10:21:55;94595.69;;;20.96;100.00
11487;BME280;10510;47.942;9.442;2023-03-21T10:23:57;94602.16;;;21.05;100.00
11487;BME280;10510;47.942;9.442;2023-03-21T10:26:00;94599.06;;;21.13;100.00
11487;BME280;10510;47.942;9.442;2023-03-21T10:28:03;94592.31;;;21.27;100.00
11487;BME280;10510;47.942;9.442;2023-03-21T10:30:05;94590.44;;;21.55;100.00
11487;BME280;10510;47.942;9.442;2023-03-21T10:32:09;94585.69;;;21.57;100.00
11487;BME280;10510;47.942;9.442;2023-03-21T10:34:35;94589.72;;;21.65;100.00
11487;BME280;10510;47.942;9.442;2023-03-21T10:36:36;94583.22;;;21.77;100.00
11487;BME280;10510;47.942;9.442;2023-03-21T10:38:43;94575.72;;;21.74;100.00
11487;BME280;10510;47.942;9.442;2023-03-21T10:40:45;94574.63;;;21.70;100.00
11487;BME280;10510;47.942;9.442;2023-03-21T10:42:45;94577.31;;;21.43;100.00
11487;BME280;10510;47.942;9.442;2023-03-21T10:44:47;94579.13;;;21.38;100.00
11487;BME280;10510;47.942;9.442;2023-03-21T10:49:06;94575.38;;;20.84;100.00
11487;BME280;10510;47.942;9.442;2023-03-21T10:51:08;94574.28;;;20.80;100.00
11487;BME280;10510;47.942;9.442;2023-03-21T10:53:17;94568.03;;;20.70;100.00
11487;BME280;10510;47.942;9.442;2023-03-21T10:55:25;94566.38;;;20.47;100.00
11487;BME280;10510;47.942;9.442;2023-03-21T10:57:27;94568.72;;;20.21;100.00
11487;BME280;10510;47.942;9.442;2023-03-21T10:59:35;94562.25;;;19.78;100.00
11487;BME280;10510;47.942;9.442;2023-03-21T11:01:39;94560.91;;;19.76;100.00
11487;BME280;10510;47.942;9.442;2023-03-21T11:03:44;94570.75;;;19.63;100.00
11487;BME280;10510;47.942;9.442;2023-03-21T11:05:51;94564.16;;;19.49;100.00
11487;BME280;10510;47.942;9.442;2023-03-21T11:08:00;94575.97;;;19.41;100.00
11487;BME280;10510;47.942;9.442;2023-03-21T11:10:15;94568.78;;;19.25;100.00
11487;BME280;10510;47.942;9.442;2023-03-21T11:12:17;94578.06;;;19.11;100.00
11487;BME280;10510;47.942;9.442;2023-03-21T11:14:31;94575.53;;;18.87;100.00
11487;BME280;10510;47.942;9.442;2023-03-21T11:16:39;94578.06;;;18.82;100.00
11487;BME280;10510;47.942;9.442;2023-03-21T11:18:44;94578.50;;;18.91;100.00
11487;BME280;10510;47.942;9.442;2023-03-21T11:21:02;94575.06;;;18.90;100.00
11487;BME280;10510;47.942;9.442;2023-03-21T11:23:05;94577.25;;;18.81;100.00